sensor_id;sensor_type;location;lat;lon;timestamp;pressure;altitude;pressure_sealevel;temperature;humidity
42111;BME280;27766;52.174;5.456;2023-04-02T00:08:56;101129.69;;;6.97;100.00
42111;BME280;27766;52.174;5.456;2023-04-02T00:11:35;101140.41;;;7.10;100.00
42111;BME280;27766;52.174;5.456;2023-04-02T00:14:05;101139.38;;;7.05;100.00
42111;BME280;27766;52.174;5.456;2023-04-02T00:16:39;101151.31;;;7.03;100.00
42111;BME280;27766;52.174;5.456;2023-04-02T00:19:13;101154.66;;;7.00;100.00
42111;BME280;27766;52.174;5.456;2023-04-02T00:21:44;101156.53;;;7.04;100.00
42111;BME280;27766;52.174;5.456;2023-04-02T00:24:15;101165.66;;;6.96;100.00
42111;BME280;27766;52.174;5.456;2023-04-02T00:26:45;101158.56;;;6.90;100.00
42111;BME280;27766;52.174;5.456;2023-04-02T00:29:14;101169.22;;;7.00;100.00
42111;BME280;27766;52.174;5.456;2023-04-02T00:31:44;101182.09;;;7.00;100.00
42111;BME280;27766;52.174;5.456;2023-04-02T00:34:30;101177.63;;;6.95;100.00
42111;BME280;27766;52.174;5.456;2023-04-02T00:36:58;101188.50;;;6.88;100.00
42111;BME280;27766;52.174;5.456;2023-04-02T00:39:28;101169.81;;;6.70;100.00
42111;BME280;27766;52.174;5.456;2023-04-02T00:41:57;101188.09;;;6.77;100.00
42111;BME280;27766;52.174;5.456;2023-04-02T00:44:39;101205.56;;;6.86;100.00
42111;BME280;27766;52.174;5.456;2023-04-02T00:47:33;101208.16;;;6.86;100.00
42111;BME280;27766;52.174;5.456;2023-04-02T00:50:14;101207.53;;;6.71;100.00
42111;BME280;27766;52.174;5.456;2023-04-02T00:52:47;101216.97;;;6.70;100.00
42111;BME280;27766;52.174;5.456;2023-04-02T00:55:37;101220.53;;;6.74;100.00
42111;BME280;27766;52.174;5.456;2023-04-02T00:58:26;101226.63;;;6.76;100.00
42111;BME280;27766;52.174;5.456;2023-04-02T01:00:53;101228.25;;;6.74;100.00
42111;BME280;27766;52.174;5.456;2023-04-02T01:06:00;101243.84;;;6.77;100.00
42111;BME280;27766;52.174;5.456;2023-04-02T01:28:17;101272.41;;;6.63;100.00
42111;BME280;27766;52.174;5.456;2023-04-02T01:30:51;101273.25;;;6.62;100.00
42111;BME280;27766;52.174;5.456;2023-04-02T01:33:29;101273.94;;;6.58;100.00
42111;BME280;27766;52.174;5.456;2023-04-02T01:38:51;101274.84;;;6.59;100.00
42111;BME280;27766;52.174;5.456;2023-04-02T01:41:29;101281.34;;;6.51;100.00
42111;BME280;27766;52.174;5.456;2023-04-02T01:44:07;101292.00;;;6.60;100.00
42111;BME280;27766;52.174;5.456;2023-04-02T01:46:40;101294.75;;;6.64;100.00
42111;BME280;27766;52.174;5.456;2023-04-02T01:49:13;101290.50;;;6.65;100.00
42111;BME280;27766;52.174;5.456;2023-04-02T01:51:44;101304.00;;;6.59;100.00
42111;BME280;27766;52.174;5.456;2023-04-02T01:54:14;101293.97;;;6.25;100.00
42111;BME280;27766;52.174;5.456;2023-04-02T01:56:43;101308.53;;;6.45;100.00
42111;BME280;27766;52.174;5.456;2023-04-02T01:59:11;101325.28;;;6.36;100.00
42111;BME280;27766;52.174;5.456;2023-04-02T02:01:44;101322.41;;;6.28;100.00
42111;BME280;27766;52.174;5.456;2023-04-02T02:04:15;101331.66;;;6.24;100.00
42111;BME280;27766;52.174;5.456;2023-04-02T02:06:44;101338.28;;;6.19;100.00
42111;BME280;27766;52.174;5.456;2023-04-02T02:09:16;101343.78;;;6.27;100.00
42111;BME280;27766;52.174;5.456;2023-04-02T02:11:44;101357.88;;;6.17;100.00
42111;BME280;27766;52.174;5.456;2023-04-02T02:14:16;101353.66;;;6.17;100.00
42111;BME280;27766;52.174;5.456;2023-04-02T02:16:45;101348.16;;;6.10;100.00
42111;BME280;27766;52.174;5.456;2023-04-02T02:19:20;101366.22;;;6.11;100.00
42111;BME280;27766;52.174;5.456;2023-04-02T02:21:52;101361.16;;;6.13;100.00
42111;BME280;27766;52.174;5.456;2023-04-02T02:27:20;101377.19;;;5.89;100.00
42111;BME280;27766;52.174;5.456;2023-04-02T02:33:23;101383.66;;;5.81;100.00
42111;BME280;27766;52.174;5.456;2023-04-02T02:35:58;101392.75;;;5.92;100.00
42111;BME280;27766;52.174;5.456;2023-04-02T02:41:34;101399.25;;;5.66;100.00
42111;BME280;27766;52.174;5.456;2023-04-02T02:46:40;101401.63;;;5.81;100.00
42111;BME280;27766;52.174;5.456;2023-04-02T02:49:14;101416.69;;;5.91;100.00
42111;BME280;27766;52.174;5.456;2023-04-02T02:51:59;101419.09;;;5.88;100.00
42111;BME280;27766;52.174;5.456;2023-04-02T02:54:28;101421.22;;;5.79;100.00
42111;BME280;27766;52.174;5.456;2023-04-02T02:57:01;101416.03;;;5.77;100.00
42111;BME280;27766;52.174;5.456;2023-04-02T02:59:30;101435.84;;;5.80;100.00
42111;BME280;27766;52.174;5.456;2023-04-02T03:01:59;101443.69;;;5.83;100.00
42111;BME280;27766;52.174;5.456;2023-04-02T03:04:27;101436.22;;;5.69;100.00
42111;BME280;27766;52.174;5.456;2023-04-02T03:07:02;101445.19;;;5.78;100.00
42111;BME280;27766;52.174;5.456;2023-04-02T03:09:45;101449.41;;;5.77;100.00
42111;BME280;27766;52.174;5.456;2023-04-02T03:24:51;101484.06;;;5.67;100.00
42111;BME280;27766;52.174;5.456;2023-04-02T03:27:22;101484.66;;;5.62;100.00
42111;BME280;27766;52.174;5.456;2023-04-02T03:30:29;101491.56;;;5.63;100.00
42111;BME280;27766;52.174;5.456;2023-04-02T03:33:00;101499.09;;;5.60;100.00
42111;BME280;27766;52.174;5.456;2023-04-02T03:35:56;101512.66;;;5.57;100.00
42111;BME280;27766;52.174;5.456;2023-04-02T03:38:40;101499.53;;;5.51;100.00
42111;BME280;27766;52.174;5.456;2023-04-02T03:43:58;101528.06;;;5.57;100.00
42111;BME280;27766;52.174;5.456;2023-04-02T03:46:48;101528.06;;;5.57;100.00
42111;BME280;27766;52.174;5.456;2023-04-02T03:51:59;101544.97;;;5.52;100.00
42111;BME280;27766;52.174;5.456;2023-04-02T03:54:28;101542.63;;;5.57;100.00
42111;BME280;27766;52.174;5.456;2023-04-02T03:56:57;101553.75;;;5.57;100.00
42111;BME280;27766;52.174;5.456;2023-04-02T04:02:06;101570.03;;;5.39;100.00
42111;BME280;27766;52.174;5.456;2023-04-02T04:04:39;101576.34;;;5.30;100.00
42111;BME280;27766;52.174;5.456;2023-04-02T04:07:20;101578.47;;;5.20;100.00
42111;BME280;27766;52.174;5.456;2023-04-02T04:09:50;101584.94;;;5.30;100.00
42111;BME280;27766;52.174;5.456;2023-04-02T04:12:31;101590.22;;;5.33;100.00
42111;BME280;27766;52.174;5.456;2023-04-02T04:15:08;101598.09;;;5.36;100.00
42111;BME280;27766;52.174;5.456;2023-04-02T04:20:20;101606.47;;;5.32;100.00
42111;BME280;27766;52.174;5.456;2023-04-02T04:22:50;101611.34;;;5.28;100.00
42111;BME280;27766;52.174;5.456;2023-04-02T04:25:27;101617.44;;;5.30;100.00
42111;BME280;27766;52.174;5.456;2023-04-02T04:30:49;101631.31;;;5.17;100.00
42111;BME280;27766;52.174;5.456;2023-04-02T04:33:23;101633.72;;;5.14;100.00
42111;BME280;27766;52.174;5.456;2023-04-02T04:35:58;101647.03;;;5.23;100.00
42111;BME280;27766;52.174;5.456;2023-04-02T04:38:34;101653.59;;;5.01;100.00
42111;BME280;27766;52.174;5.456;2023-04-02T04:41:17;101646.84;;;5.03;100.00
42111;BME280;27766;52.174;5.456;2023-04-02T04:43:55;101654.06;;;4.94;100.00
42111;BME280;27766;52.174;5.456;2023-04-02T04:49:22;101677.59;;;4.87;100.00
42111;BME280;27766;52.174;5.456;2023-04-02T04:51:55;101685.69;;;4.78;100.00
42111;BME280;27766;52.174;5.456;2023-04-02T04:54:25;101689.94;;;4.78;100.00
42111;BME280;27766;52.174;5.456;2023-04-02T04:57:01;101702.31;;;4.85;100.00
42111;BME280;27766;52.174;5.456;2023-04-02T04:59:42;101706.34;;;4.65;100.00
42111;BME280;27766;52.174;5.456;2023-04-02T05:02:27;101712.78;;;4.58;100.00
42111;BME280;27766;52.174;5.456;2023-04-02T05:04:55;101714.91;;;4.65;100.00
42111;BME280;27766;52.174;5.456;2023-04-02T05:07:27;101721.25;;;4.57;100.00
42111;BME280;27766;52.174;5.456;2023-04-02T05:10:16;101738.59;;;4.46;100.00
42111;BME280;27766;52.174;5.456;2023-04-02T05:12:58;101722.91;;;4.25;100.00
42111;BME280;27766;52.174;5.456;2023-04-02T05:18:50;101757.16;;;4.12;100.00
42111;BME280;27766;52.174;5.456;2023-04-02T05:21:59;101758.53;;;3.92;100.00
42111;BME280;27766;52.174;5.456;2023-04-02T05:28:05;101776.28;;;3.89;100.00
42111;BME280;27766;52.174;5.456;2023-04-02T05:33:17;101786.53;;;3.89;100.00
42111;BME280;27766;52.174;5.456;2023-04-02T05:35:47;101786.06;;;3.81;100.00
42111;BME280;27766;52.174;5.456;2023-04-02T05:38:26;101795.25;;;3.77;100.00
42111;BME280;27766;52.174;5.456;2023-04-02T05:41:02;101798.94;;;3.68;100.00
42111;BME280;27766;52.174;5.456;2023-04-02T05:43:33;101804.84;;;3.67;100.00
42111;BME280;27766;52.174;5.456;2023-04-02T05:46:13;101815.97;;;3.54;100.00
42111;BME280;27766;52.174;5.456;2023-04-02T05:48:42;101816.47;;;3.48;100.00
42111;BME280;27766;52.174;5.456;2023-04-02T05:51:20;101832.75;;;3.48;100.00
42111;BME280;27766;52.174;5.456;2023-04-02T05:53:56;101822.00;;;3.41;100.00
42111;BME280;27766;52.174;5.456;2023-04-02T05:59:28;101832.72;;;3.35;100.00
42111;BME280;27766;52.174;5.456;2023-04-02T06:02:05;101844.34;;;3.43;100.00
42111;BME280;27766;52.174;5.456;2023-04-02T06:04:57;101847.28;;;3.49;100.00
42111;BME280;27766;52.174;5.456;2023-04-02T06:07:26;101849.66;;;3.46;100.00
42111;BME280;27766;52.174;5.456;2023-04-02T06:10:02;101853.59;;;3.41;100.00
42111;BME280;27766;52.174;5.456;2023-04-02T06:12:44;101872.22;;;3.52;100.00
42111;BME280;27766;52.174;5.456;2023-04-02T06:15:15;101874.78;;;3.52;100.00
42111;BME280;27766;52.174;5.456;2023-04-02T06:18:04;101892.56;;;3.51;100.00
42111;BME280;27766;52.174;5.456;2023-04-02T06:20:32;101907.44;;;3.56;100.00
42111;BME280;27766;52.174;5.456;2023-04-02T06:23:09;101908.94;;;3.53;100.00
42111;BME280;27766;52.174;5.456;2023-04-02T06:25:50;101905.97;;;3.60;100.00
42111;BME280;27766;52.174;5.456;2023-04-02T06:28:25;101905.34;;;3.64;100.00
42111;BME280;27766;52.174;5.456;2023-04-02T06:30:57;101932.53;;;3.75;100.00
42111;BME280;27766;52.174;5.456;2023-04-02T06:33:25;101931.69;;;3.75;100.00
42111;BME280;27766;52.174;5.456;2023-04-02T06:35:53;101920.63;;;3.76;100.00
42111;BME280;27766;52.174;5.456;2023-04-02T06:38:25;101933.53;;;3.77;100.00
42111;BME280;27766;52.174;5.456;2023-04-02T06:40:56;101941.00;;;3.88;100.00
42111;BME280;27766;52.174;5.456;2023-04-02T06:43:34;101959.81;;;3.88;100.00
42111;BME280;27766;52.174;5.456;2023-04-02T06:46:12;101938.56;;;3.89;100.00
42111;BME280;27766;52.174;5.456;2023-04-02T06:48:42;101945.16;;;3.86;100.00
42111;BME280;27766;52.174;5.456;2023-04-02T06:51:13;101950.03;;;3.96;100.00
42111;BME280;27766;52.174;5.456;2023-04-02T06:53:46;101953.41;;;3.95;100.00
42111;BME280;27766;52.174;5.456;2023-04-02T06:57:07;101965.81;;;3.89;100.00
42111;BME280;27766;52.174;5.456;2023-04-02T06:59:27;101964.22;;;4.04;100.00
42111;BME280;27766;52.174;5.456;2023-04-02T07:02:00;101964.06;;;4.01;100.00
42111;BME280;27766;52.174;5.456;2023-04-02T07:04:32;101977.03;;;4.04;100.00
42111;BME280;27766;52.174;5.456;2023-04-02T07:07:00;101988.97;;;4.04;100.00
42111;BME280;27766;52.174;5.456;2023-04-02T07:09:27;101992.63;;;4.07;100.00
42111;BME280;27766;52.174;5.456;2023-04-02T07:11:54;102012.50;;;4.11;100.00
42111;BME280;27766;52.174;5.456;2023-04-02T07:14:22;102016.75;;;4.11;100.00
42111;BME280;27766;52.174;5.456;2023-04-02T07:16:49;102014.94;;;4.23;100.00
42111;BME280;27766;52.174;5.456;2023-04-02T07:19:20;102020.69;;;4.19;100.00
42111;BME280;27766;52.174;5.456;2023-04-02T07:21:48;102031.41;;;4.27;100.00
42111;BME280;27766;52.174;5.456;2023-04-02T07:24:15;102034.19;;;4.17;100.00
42111;BME280;27766;52.174;5.456;2023-04-02T07:26:42;102020.22;;;3.98;100.00
42111;BME280;27766;52.174;5.456;2023-04-02T07:29:14;102039.84;;;3.98;100.00
42111;BME280;27766;52.174;5.456;2023-04-02T07:31:42;102046.69;;;3.99;100.00
42111;BME280;27766;52.174;5.456;2023-04-02T07:34:12;102049.78;;;4.06;100.00
42111;BME280;27766;52.174;5.456;2023-04-02T07:36:40;102058.06;;;4.02;100.00
42111;BME280;27766;52.174;5.456;2023-04-02T07:39:07;102056.47;;;4.04;100.00
42111;BME280;27766;52.174;5.456;2023-04-02T07:41:52;102068.47;;;4.19;100.00
42111;BME280;27766;52.174;5.456;2023-04-02T07:44:20;102077.16;;;4.21;100.00
42111;BME280;27766;52.174;5.456;2023-04-02T07:46:48;102075.09;;;4.15;100.00
42111;BME280;27766;52.174;5.456;2023-04-02T07:49:15;102086.03;;;4.12;100.00
42111;BME280;27766;52.174;5.456;2023-04-02T07:51:42;102089.09;;;4.20;100.00
42111;BME280;27766;52.174;5.456;2023-04-02T07:54:10;102077.94;;;4.20;100.00
42111;BME280;27766;52.174;5.456;2023-04-02T07:56:37;102079.94;;;4.24;100.00
42111;BME280;27766;52.174;5.456;2023-04-02T07:59:04;102086.31;;;4.31;100.00
42111;BME280;27766;52.174;5.456;2023-04-02T08:01:32;102096.19;;;4.24;100.00
42111;BME280;27766;52.174;5.456;2023-04-02T08:04:03;102095.00;;;4.33;100.00
42111;BME280;27766;52.174;5.456;2023-04-02T08:06:30;102097.66;;;4.34;100.00
42111;BME280;27766;52.174;5.456;2023-04-02T08:08:58;102087.59;;;4.10;100.00
42111;BME280;27766;52.174;5.456;2023-04-02T08:11:25;102106.75;;;4.16;100.00
42111;BME280;27766;52.174;5.456;2023-04-02T08:13:52;102107.63;;;4.16;100.00
42111;BME280;27766;52.174;5.456;2023-04-02T08:16:19;102112.94;;;4.19;100.00
42111;BME280;27766;52.174;5.456;2023-04-02T08:18:47;102120.44;;;4.30;100.00
42111;BME280;27766;52.174;5.456;2023-04-02T08:21:14;102134.94;;;4.29;100.00
42111;BME280;27766;52.174;5.456;2023-04-02T08:23:42;102124.47;;;4.26;100.00
42111;BME280;27766;52.174;5.456;2023-04-02T08:26:15;102133.75;;;4.37;100.00
42111;BME280;27766;52.174;5.456;2023-04-02T08:28:43;102136.50;;;4.27;100.00
42111;BME280;27766;52.174;5.456;2023-04-02T08:31:10;102141.84;;;4.30;100.00
42111;BME280;27766;52.174;5.456;2023-04-02T08:33:37;102143.63;;;4.31;100.00
42111;BME280;27766;52.174;5.456;2023-04-02T08:36:04;102152.97;;;4.31;100.00
42111;BME280;27766;52.174;5.456;2023-04-02T08:38:32;102159.09;;;4.33;100.00
42111;BME280;27766;52.174;5.456;2023-04-02T08:41:00;102161.16;;;4.38;100.00
42111;BME280;27766;52.174;5.456;2023-04-02T08:48:49;102178.19;;;4.24;100.00
42111;BME280;27766;52.174;5.456;2023-04-02T08:51:26;102177.81;;;4.32;100.00
42111;BME280;27766;52.174;5.456;2023-04-02T08:53:57;102185.91;;;4.38;100.00
42111;BME280;27766;52.174;5.456;2023-04-02T08:56:30;102188.75;;;4.42;100.00
42111;BME280;27766;52.174;5.456;2023-04-02T08:59:02;102198.66;;;4.63;100.00
42111;BME280;27766;52.174;5.456;2023-04-02T09:04:44;102214.22;;;4.53;100.00
42111;BME280;27766;52.174;5.456;2023-04-02T09:07:13;102214.22;;;4.53;100.00
42111;BME280;27766;52.174;5.456;2023-04-02T09:09:42;102205.72;;;4.67;100.00
42111;BME280;27766;52.174;5.456;2023-04-02T09:12:33;102207.81;;;4.73;100.00
42111;BME280;27766;52.174;5.456;2023-04-02T09:17:38;102226.75;;;4.48;100.00
42111;BME280;27766;52.174;5.456;2023-04-02T09:20:24;102220.44;;;4.43;100.00
42111;BME280;27766;52.174;5.456;2023-04-02T09:22:52;102223.56;;;4.39;100.00
42111;BME280;27766;52.174;5.456;2023-04-02T09:25:23;102223.91;;;4.70;100.00
42111;BME280;27766;52.174;5.456;2023-04-02T09:27:54;102233.94;;;4.81;100.00
42111;BME280;27766;52.174;5.456;2023-04-02T09:32:58;102248.31;;;5.19;100.00
42111;BME280;27766;52.174;5.456;2023-04-02T09:35:29;102240.75;;;5.35;100.00
42111;BME280;27766;52.174;5.456;2023-04-02T09:40:59;102259.53;;;5.48;100.00
42111;BME280;27766;52.174;5.456;2023-04-02T09:43:32;102264.69;;;5.63;100.00
42111;BME280;27766;52.174;5.456;2023-04-02T09:48:43;102247.69;;;5.65;100.00
42111;BME280;27766;52.174;5.456;2023-04-02T09:51:15;102255.16;;;5.75;100.00
42111;BME280;27766;52.174;5.456;2023-04-02T09:56:34;102253.69;;;5.94;100.00
42111;BME280;27766;52.174;5.456;2023-04-02T10:01:47;102259.41;;;6.03;100.00
42111;BME280;27766;52.174;5.456;2023-04-02T10:07:35;102269.81;;;6.34;100.00
42111;BME280;27766;52.174;5.456;2023-04-02T10:10:27;102269.81;;;6.34;100.00
42111;BME280;27766;52.174;5.456;2023-04-02T10:15:38;102284.63;;;6.39;100.00
42111;BME280;27766;52.174;5.456;2023-04-02T10:20:38;102287.72;;;6.63;100.00
42111;BME280;27766;52.174;5.456;2023-04-02T10:23:17;102286.56;;;6.73;100.00
42111;BME280;27766;52.174;5.456;2023-04-02T10:25:53;102296.59;;;6.68;100.00
42111;BME280;27766;52.174;5.456;2023-04-02T10:31:22;102295.59;;;6.81;100.00
42111;BME280;27766;52.174;5.456;2023-04-02T10:34:03;102303.41;;;6.97;100.00
42111;BME280;27766;52.174;5.456;2023-04-02T10:36:44;102295.59;;;6.96;100.00
42111;BME280;27766;52.174;5.456;2023-04-02T10:39:28;102302.34;;;6.94;100.00
42111;BME280;27766;52.174;5.456;2023-04-02T10:42:23;102314.69;;;7.00;100.00
42111;BME280;27766;52.174;5.456;2023-04-02T10:48:01;102306.31;;;7.04;100.00
42111;BME280;27766;52.174;5.456;2023-04-02T10:53:19;102314.03;;;7.19;100.00
42111;BME280;27766;52.174;5.456;2023-04-02T10:55:51;102308.81;;;7.34;100.00
42111;BME280;27766;52.174;5.456;2023-04-02T10:58:26;102316.25;;;7.44;100.00
42111;BME280;27766;52.174;5.456;2023-04-02T11:01:13;102318.75;;;7.42;100.00
42111;BME280;27766;52.174;5.456;2023-04-02T11:04:21;102316.72;;;7.37;100.00
42111;BME280;27766;52.174;5.456;2023-04-02T11:07:03;102318.81;;;7.44;100.00
42111;BME280;27766;52.174;5.456;2023-04-02T11:09:43;102325.91;;;7.48;100.00
42111;BME280;27766;52.174;5.456;2023-04-02T11:12:22;102337.84;;;7.46;99.34
42111;BME280;27766;52.174;5.456;2023-04-02T11:14:51;102339.16;;;7.54;100.00
42111;BME280;27766;52.174;5.456;2023-04-02T11:17:20;102327.78;;;7.51;100.00
42111;BME280;27766;52.174;5.456;2023-04-02T11:19:48;102323.72;;;7.39;100.00
42111;BME280;27766;52.174;5.456;2023-04-02T11:22:18;102335.25;;;7.46;100.00
42111;BME280;27766;52.174;5.456;2023-04-02T11:30:02;102341.16;;;7.76;100.00
42111;BME280;27766;52.174;5.456;2023-04-02T11:32:47;102343.69;;;7.91;100.00
42111;BME280;27766;52.174;5.456;2023-04-02T11:35:35;102348.59;;;7.87;100.00
42111;BME280;27766;52.174;5.456;2023-04-02T11:48:42;102357.06;;;8.01;100.00
42111;BME280;27766;52.174;5.456;2023-04-02T11:53:49;102357.53;;;8.10;100.00
42111;BME280;27766;52.174;5.456;2023-04-02T11:56:19;102364.41;;;8.26;100.00
42111;BME280;27766;52.174;5.456;2023-04-02T11:58:57;102367.28;;;8.32;100.00
42111;BME280;27766;52.174;5.456;2023-04-02T12:10:10;102393.81;;;8.46;90.80
42111;BME280;27766;52.174;5.456;2023-04-02T12:12:41;102385.72;;;8.40;91.53
42111;BME280;27766;52.174;5.456;2023-04-02T12:18:26;102390.59;;;8.50;94.81
42111;BME280;27766;52.174;5.456;2023-04-02T12:20:54;102383.84;;;8.52;90.23
42111;BME280;27766;52.174;5.456;2023-04-02T12:23:34;102397.06;;;8.59;82.75
42111;BME280;27766;52.174;5.456;2023-04-02T12:26:04;102384.94;;;8.58;85.56
42111;BME280;27766;52.174;5.456;2023-04-02T12:28:34;102403.78;;;8.73;87.80
42111;BME280;27766;52.174;5.456;2023-04-02T12:31:12;102404.19;;;8.81;89.10
42111;BME280;27766;52.174;5.456;2023-04-02T12:33:40;102408.25;;;8.94;96.83
42111;BME280;27766;52.174;5.456;2023-04-02T12:38:57;102408.06;;;9.07;88.45
42111;BME280;27766;52.174;5.456;2023-04-02T12:41:30;102399.31;;;9.22;94.37
42111;BME280;27766;52.174;5.456;2023-04-02T12:44:01;102399.31;;;9.22;73.95
42111;BME280;27766;52.174;5.456;2023-04-02T12:46:30;102403.78;;;9.26;76.23
42111;BME280;27766;52.174;5.456;2023-04-02T12:49:16;102419.47;;;9.29;76.20
42111;BME280;27766;52.174;5.456;2023-04-02T12:51:47;102405.78;;;9.13;72.70
42111;BME280;27766;52.174;5.456;2023-04-02T12:54:16;102411.53;;;9.08;77.90
42111;BME280;27766;52.174;5.456;2023-04-02T12:56:44;102414.50;;;9.15;73.31
42111;BME280;27766;52.174;5.456;2023-04-02T12:59:28;102420.03;;;9.23;70.65
42111;BME280;27766;52.174;5.456;2023-04-02T13:01:59;102417.09;;;9.33;68.03
42111;BME280;27766;52.174;5.456;2023-04-02T13:04:27;102420.94;;;9.42;69.40
42111;BME280;27766;52.174;5.456;2023-04-02T13:06:54;102416.56;;;9.41;67.25
42111;BME280;27766;52.174;5.456;2023-04-02T13:09:33;102415.88;;;9.63;74.41
42111;BME280;27766;52.174;5.456;2023-04-02T13:12:01;102429.69;;;9.81;69.63
42111;BME280;27766;52.174;5.456;2023-04-02T13:14:29;102414.50;;;9.89;67.94
42111;BME280;27766;52.174;5.456;2023-04-02T13:16:56;102428.63;;;9.96;62.65
42111;BME280;27766;52.174;5.456;2023-04-02T13:19:31;102426.03;;;9.96;62.22
42111;BME280;27766;52.174;5.456;2023-04-02T13:22:01;102434.50;;;10.11;63.76
42111;BME280;27766;52.174;5.456;2023-04-02T13:24:31;102426.00;;;10.34;61.55
42111;BME280;27766;52.174;5.456;2023-04-02T13:27:00;102407.69;;;10.49;61.64
42111;BME280;27766;52.174;5.456;2023-04-02T13:29:33;102423.47;;;10.55;59.86
42111;BME280;27766;52.174;5.456;2023-04-02T13:32:11;102425.59;;;10.64;57.65
42111;BME280;27766;52.174;5.456;2023-04-02T13:34:38;102433.38;;;10.85;58.69
42111;BME280;27766;52.174;5.456;2023-04-02T13:37:05;102427.25;;;11.04;56.15
42111;BME280;27766;52.174;5.456;2023-04-02T13:39:33;102414.78;;;11.15;55.73
42111;BME280;27766;52.174;5.456;2023-04-02T13:42:01;102425.88;;;11.33;54.40
42111;BME280;27766;52.174;5.456;2023-04-02T13:44:31;102434.47;;;11.32;55.59
42111;BME280;27766;52.174;5.456;2023-04-02T13:46:59;102435.38;;;11.33;53.59
42111;BME280;27766;52.174;5.456;2023-04-02T13:49:27;102437.44;;;11.42;53.15
42111;BME280;27766;52.174;5.456;2023-04-02T13:51:59;102436.50;;;11.85;54.55
42111;BME280;27766;52.174;5.456;2023-04-02T13:54:46;102436.78;;;12.14;52.36
42111;BME280;27766;52.174;5.456;2023-04-02T13:57:15;102437.38;;;12.31;51.38
42111;BME280;27766;52.174;5.456;2023-04-02T13:59:42;102432.47;;;12.39;51.26
42111;BME280;27766;52.174;5.456;2023-04-02T14:02:17;102445.06;;;12.52;49.59
42111;BME280;27766;52.174;5.456;2023-04-02T14:04:48;102445.78;;;12.48;49.21
42111;BME280;27766;52.174;5.456;2023-04-02T14:12:36;102446.69;;;14.09;46.02
42111;BME280;27766;52.174;5.456;2023-04-02T14:15:11;102448.78;;;14.87;44.61
42111;BME280;27766;52.174;5.456;2023-04-02T14:24:15;102450.81;;;16.56;41.10
42111;BME280;27766;52.174;5.456;2023-04-02T14:40:01;102464.56;;;17.47;39.10
42111;BME280;27766;52.174;5.456;2023-04-02T14:45:02;102469.19;;;17.62;37.25
42111;BME280;27766;52.174;5.456;2023-04-02T14:47:40;102456.41;;;17.25;37.87
42111;BME280;27766;52.174;5.456;2023-04-02T14:50:16;102469.00;;;17.50;37.35
42111;BME280;27766;52.174;5.456;2023-04-02T14:52:49;102482.03;;;17.47;38.63
42111;BME280;27766;52.174;5.456;2023-04-02T14:55:31;102475.94;;;17.48;38.48
42111;BME280;27766;52.174;5.456;2023-04-02T14:58:02;102475.19;;;17.55;37.05
42111;BME280;27766;52.174;5.456;2023-04-02T15:00:44;102480.03;;;17.90;37.52
42111;BME280;27766;52.174;5.456;2023-04-02T15:03:35;102462.41;;;17.78;36.39
42111;BME280;27766;52.174;5.456;2023-04-02T15:06:10;102474.63;;;17.21;36.82
42111;BME280;27766;52.174;5.456;2023-04-02T15:08:46;102472.91;;;17.20;37.12
42111;BME280;27766;52.174;5.456;2023-04-02T15:14:05;102476.44;;;17.23;37.77
42111;BME280;27766;52.174;5.456;2023-04-02T15:16:38;102489.19;;;17.03;37.30
42111;BME280;27766;52.174;5.456;2023-04-02T15:19:11;102492.75;;;17.08;37.64
42111;BME280;27766;52.174;5.456;2023-04-02T15:24:55;102494.34;;;17.00;37.14
42111;BME280;27766;52.174;5.456;2023-04-02T15:30:06;102499.75;;;15.81;39.00
42111;BME280;27766;52.174;5.456;2023-04-02T15:32:38;102499.16;;;15.55;39.30
42111;BME280;27766;52.174;5.456;2023-04-02T15:35:23;102495.28;;;15.39;39.92
42111;BME280;27766;52.174;5.456;2023-04-02T15:40:48;102496.84;;;15.30;41.82
42111;BME280;27766;52.174;5.456;2023-04-02T15:52:06;102512.34;;;14.60;42.53
42111;BME280;27766;52.174;5.456;2023-04-02T15:54:54;102523.50;;;14.25;43.74
42111;BME280;27766;52.174;5.456;2023-04-02T16:00:20;102516.91;;;14.08;44.92
42111;BME280;27766;52.174;5.456;2023-04-02T16:08:39;102520.00;;;13.96;45.86
42111;BME280;27766;52.174;5.456;2023-04-02T16:11:11;102513.44;;;13.79;44.92
42111;BME280;27766;52.174;5.456;2023-04-02T16:13:40;102515.59;;;13.39;45.46
42111;BME280;27766;52.174;5.456;2023-04-02T16:16:16;102518.47;;;13.74;46.78
42111;BME280;27766;52.174;5.456;2023-04-02T16:22:15;102538.19;;;14.23;43.84
42111;BME280;27766;52.174;5.456;2023-04-02T16:24:45;102539.16;;;13.97;44.78
42111;BME280;27766;52.174;5.456;2023-04-02T16:35:30;102548.69;;;14.55;44.12
42111;BME280;27766;52.174;5.456;2023-04-02T16:45:11;102546.63;;;15.06;42.44
42111;BME280;27766;52.174;5.456;2023-04-02T16:50:02;102557.16;;;15.44;42.96
42111;BME280;27766;52.174;5.456;2023-04-02T16:52:41;102569.22;;;15.39;43.35
42111;BME280;27766;52.174;5.456;2023-04-02T16:55:23;102570.53;;;15.57;43.53
42111;BME280;27766;52.174;5.456;2023-04-02T17:00:28;102584.41;;;15.56;43.71
42111;BME280;27766;52.174;5.456;2023-04-02T17:08:43;102588.16;;;15.67;43.14
42111;BME280;27766;52.174;5.456;2023-04-02T17:11:23;102585.72;;;15.38;43.52
42111;BME280;27766;52.174;5.456;2023-04-02T17:14:05;102606.63;;;15.40;42.44
42111;BME280;27766;52.174;5.456;2023-04-02T17:16:41;102615.06;;;14.67;43.20
42111;BME280;27766;52.174;5.456;2023-04-02T17:19:11;102613.31;;;14.38;44.52
42111;BME280;27766;52.174;5.456;2023-04-02T17:21:41;102624.41;;;14.04;45.36
42111;BME280;27766;52.174;5.456;2023-04-02T17:26:44;102630.47;;;12.78;47.53
42111;BME280;27766;52.174;5.456;2023-04-02T17:29:22;102623.47;;;12.09;49.26
42111;BME280;27766;52.174;5.456;2023-04-02T17:31:51;102627.94;;;11.71;51.13
42111;BME280;27766;52.174;5.456;2023-04-02T17:34:19;102636.44;;;11.47;53.80